createdAt,value
2023-04-16T00:00:26.728Z,9.93
2023-04-16T00:01:26.709Z,9.92
2023-04-16T00:02:26.864Z,9.92
2023-04-16T00:03:26.889Z,9.92
2023-04-16T00:04:26.721Z,9.93
2023-04-16T00:05:26.638Z,9.93
2023-04-16T00:06:26.617Z,9.93
2023-04-16T00:07:26.619Z,9.95
2023-04-16T00:08:26.618Z,9.92
2023-04-16T00:09:26.618Z,9.92
2023-04-16T00:10:26.595Z,9.93
2023-04-16T00:11:26.575Z,9.92
2023-04-16T00:12:26.546Z,9.91
2023-04-16T00:13:26.561Z,9.92
2023-04-16T00:14:26.516Z,9.92
2023-04-16T00:15:26.523Z,9.89
2023-04-16T00:16:26.520Z,9.92
2023-04-16T00:17:26.585Z,9.93
2023-04-16T00:18:26.494Z,9.95
2023-04-16T00:19:26.483Z,9.93
2023-04-16T00:20:26.436Z,9.93
2023-04-16T00:21:26.504Z,9.92
2023-04-16T00:22:26.484Z,9.93
2023-04-16T00:23:26.426Z,9.93
2023-04-16T00:24:26.392Z,9.95
2023-04-16T00:25:26.398Z,9.93
2023-04-16T00:26:26.383Z,9.93
2023-04-16T00:27:26.399Z,9.93
2023-04-16T00:28:26.344Z,9.93
2023-04-16T00:29:26.477Z,9.93
2023-04-16T00:30:26.321Z,9.93
2023-04-16T00:31:26.390Z,9.95
2023-04-16T00:32:26.329Z,9.95
2023-04-16T00:33:26.286Z,9.95
2023-04-16T00:34:26.271Z,9.93
2023-04-16T00:35:26.294Z,9.92
2023-04-16T00:36:26.241Z,9.91
2023-04-16T00:37:26.244Z,9.92
2023-04-16T00:38:26.230Z,9.91
2023-04-16T00:39:26.217Z,9.89
2023-04-16T00:40:26.192Z,9.92
2023-04-16T00:41:26.231Z,9.92
2023-04-16T00:42:26.194Z,9.91
2023-04-16T00:43:26.192Z,9.92
2023-04-16T00:44:26.151Z,9.91
2023-04-16T00:45:26.230Z,9.91
2023-04-16T00:46:26.195Z,9.91
2023-04-16T00:47:26.145Z,9.92
2023-04-16T00:48:26.118Z,9.92
2023-04-16T00:49:26.130Z,9.92
2023-04-16T00:50:26.050Z,9.91
2023-04-16T00:51:26.056Z,9.91
2023-04-16T00:52:26.029Z,9.89
2023-04-16T00:53:26.086Z,9.89
2023-04-16T00:54:26.692Z,9.91
2023-04-16T00:55:26.006Z,9.89
2023-04-16T00:56:25.985Z,9.92
2023-04-16T00:57:25.998Z,9.92
2023-04-16T00:58:25.959Z,9.93
2023-04-16T00:59:25.967Z,9.95
2023-04-16T01:00:25.935Z,9.92
2023-04-16T01:01:26.077Z,9.91
2023-04-16T01:02:25.974Z,9.92
2023-04-16T01:03:26.015Z,9.92
2023-04-16T01:04:25.927Z,9.91
2023-04-16T01:05:25.884Z,9.92
2023-04-16T01:06:25.874Z,9.92
2023-04-16T01:07:25.857Z,9.91
2023-04-16T01:08:25.823Z,9.91
2023-04-16T01:09:25.848Z,9.91
2023-04-16T01:10:25.839Z,9.89
2023-04-16T01:11:25.785Z,9.89
2023-04-16T01:12:25.783Z,9.88
2023-04-16T01:13:25.789Z,9.88
2023-04-16T01:14:26.474Z,9.91
2023-04-16T01:15:25.748Z,9.92
2023-04-16T01:16:25.753Z,9.93
2023-04-16T01:17:25.753Z,9.93
2023-04-16T01:18:25.701Z,9.91
2023-04-16T01:19:25.727Z,9.93
2023-04-16T01:20:25.712Z,9.92
2023-04-16T01:21:25.701Z,9.92
2023-04-16T01:22:25.644Z,9.93
2023-04-16T01:23:25.710Z,9.93
2023-04-16T01:24:25.627Z,9.95
2023-04-16T01:25:25.629Z,9.95
2023-04-16T01:26:25.931Z,9.95
2023-04-16T01:27:25.594Z,9.93
2023-04-16T01:28:25.608Z,9.91
2023-04-16T01:29:25.573Z,9.91
2023-04-16T01:30:25.545Z,9.89
2023-04-16T01:31:25.555Z,9.88
2023-04-16T01:32:25.558Z,9.86
2023-04-16T01:33:25.564Z,9.86
2023-04-16T01:34:25.561Z,9.83
2023-04-16T01:35:25.486Z,9.85
2023-04-16T01:36:25.516Z,9.85
2023-04-16T01:37:25.496Z,9.86
2023-04-16T01:38:25.442Z,9.86
2023-04-16T01:39:25.454Z,9.85
2023-04-16T01:40:25.436Z,9.83
2023-04-16T01:41:25.426Z,9.86
2023-04-16T01:42:25.488Z,9.89
2023-04-16T01:43:25.399Z,9.89
2023-04-16T01:44:25.392Z,9.88
2023-04-16T01:45:25.366Z,9.88
2023-04-16T01:46:25.413Z,9.85
2023-04-16T01:47:25.394Z,9.83
2023-04-16T01:48:25.319Z,9.85
2023-04-16T01:49:25.321Z,9.83
2023-04-16T01:50:25.313Z,9.83
2023-04-16T01:51:25.318Z,9.85
2023-04-16T01:52:25.266Z,9.83
2023-04-16T01:53:25.278Z,9.81
2023-04-16T01:54:25.244Z,9.81
2023-04-16T01:55:25.256Z,9.80
2023-04-16T01:56:25.236Z,9.78
2023-04-16T01:57:25.215Z,9.80
2023-04-16T01:58:25.254Z,9.81
2023-04-16T01:59:25.205Z,9.81
2023-04-16T02:00:25.175Z,9.80
2023-04-16T02:01:25.296Z,9.81
2023-04-16T02:02:25.268Z,9.80
2023-04-16T02:03:25.364Z,9.81
2023-04-16T02:04:25.116Z,9.83
2023-04-16T02:05:25.104Z,9.81
2023-04-16T02:06:25.091Z,9.83
2023-04-16T02:07:25.079Z,9.81
2023-04-16T02:08:25.107Z,9.78
2023-04-16T02:09:25.099Z,9.77
2023-04-16T02:10:25.077Z,9.77
2023-04-16T02:11:25.107Z,9.75
2023-04-16T02:12:24.998Z,9.74
2023-04-16T02:13:25.059Z,9.74
2023-04-16T02:14:24.993Z,9.74
2023-04-16T02:15:24.985Z,9.74
2023-04-16T02:16:24.998Z,9.74
2023-04-16T02:17:25.001Z,9.75
2023-04-16T02:18:24.936Z,9.75
2023-04-16T02:19:24.952Z,9.74
2023-04-16T02:20:24.898Z,9.73
2023-04-16T02:21:24.922Z,9.73
2023-04-16T02:22:24.869Z,9.74
2023-04-16T02:23:24.864Z,9.73
2023-04-16T02:24:24.886Z,9.73
2023-04-16T02:25:25.237Z,9.73
2023-04-16T02:26:24.809Z,9.71
2023-04-16T02:27:24.818Z,9.73
2023-04-16T02:28:24.831Z,9.71
2023-04-16T02:29:24.826Z,9.67
2023-04-16T02:30:24.783Z,9.65
2023-04-16T02:31:24.878Z,9.67
2023-04-16T02:32:24.862Z,9.67
2023-04-16T02:33:24.750Z,9.65
2023-04-16T02:34:24.703Z,9.68
2023-04-16T02:35:24.719Z,9.70
2023-04-16T02:36:24.688Z,9.70
2023-04-16T02:37:24.726Z,9.70
2023-04-16T02:38:24.699Z,9.67
2023-04-16T02:39:24.692Z,9.65
2023-04-16T02:40:24.629Z,9.65
2023-04-16T02:41:24.665Z,9.63
2023-04-16T02:42:24.625Z,9.65
2023-04-16T02:43:24.603Z,9.65
2023-04-16T02:44:24.584Z,9.67
2023-04-16T02:45:24.598Z,9.65
2023-04-16T02:46:24.670Z,9.65
2023-04-16T02:47:24.600Z,9.67
2023-04-16T02:48:24.559Z,9.62
2023-04-16T02:49:24.531Z,9.59
2023-04-16T02:50:24.502Z,9.60
2023-04-16T02:51:25.408Z,9.59
2023-04-16T02:52:24.507Z,9.58
2023-04-16T02:53:24.494Z,9.58
2023-04-16T02:54:24.485Z,9.58
2023-04-16T02:55:24.446Z,9.56
2023-04-16T02:56:24.445Z,9.56
2023-04-16T02:57:24.421Z,9.56
2023-04-16T02:58:24.438Z,9.56
2023-04-16T02:59:24.387Z,9.56
2023-04-16T03:00:24.392Z,9.53
2023-04-16T03:01:24.388Z,9.52
2023-04-16T03:02:24.420Z,9.49
2023-04-16T03:03:24.382Z,9.52
2023-04-16T03:04:24.433Z,9.55
2023-04-16T03:05:24.320Z,9.52
2023-04-16T03:06:24.349Z,9.53
2023-04-16T03:07:24.299Z,9.52
2023-04-16T03:08:24.285Z,9.52
2023-04-16T03:09:24.258Z,9.52
2023-04-16T03:10:24.286Z,9.50
2023-04-16T03:11:24.257Z,9.50
2023-04-16T03:12:24.238Z,9.50
2023-04-16T03:13:24.216Z,9.49
2023-04-16T03:14:24.207Z,9.48
2023-04-16T03:15:24.188Z,9.49
2023-04-16T03:16:24.241Z,9.48
2023-04-16T03:17:24.225Z,9.45
2023-04-16T03:18:24.168Z,9.44
2023-04-16T03:19:24.138Z,9.44
2023-04-16T03:20:24.163Z,9.44
2023-04-16T03:21:24.101Z,9.42
2023-04-16T03:22:24.136Z,9.40
2023-04-16T03:23:24.129Z,9.41
2023-04-16T03:24:24.145Z,9.40
2023-04-16T03:25:24.054Z,9.40
2023-04-16T03:26:24.043Z,9.40
2023-04-16T03:27:24.017Z,9.41
2023-04-16T03:28:24.037Z,9.41
2023-04-16T03:29:24.036Z,9.37
2023-04-16T03:30:23.995Z,9.37
2023-04-16T03:31:23.979Z,9.37
2023-04-16T03:32:23.996Z,9.37
2023-04-16T03:33:24.007Z,9.38
2023-04-16T03:34:23.919Z,9.37
2023-04-16T03:35:23.924Z,9.37
2023-04-16T03:36:23.908Z,9.37
2023-04-16T03:37:23.877Z,9.32
2023-04-16T03:38:23.893Z,9.30
2023-04-16T03:39:23.871Z,9.26
2023-04-16T03:40:23.860Z,9.26
2023-04-16T03:41:23.840Z,9.22
2023-04-16T03:42:23.827Z,9.24
2023-04-16T03:43:23.826Z,9.24
2023-04-16T03:44:23.799Z,9.22
2023-04-16T03:45:23.792Z,9.20
2023-04-16T03:46:23.838Z,9.22
2023-04-16T03:47:23.817Z,9.23
2023-04-16T03:48:23.789Z,9.24
2023-04-16T03:49:23.805Z,9.26
2023-04-16T03:50:23.744Z,9.23
2023-04-16T03:51:23.717Z,9.26
2023-04-16T03:52:23.689Z,9.26
2023-04-16T03:53:23.709Z,9.23
2023-04-16T03:54:23.696Z,9.22
2023-04-16T03:55:23.648Z,9.23
2023-04-16T03:56:23.660Z,9.23
2023-04-16T03:57:23.641Z,9.24
2023-04-16T03:58:23.658Z,9.26
2023-04-16T03:59:23.636Z,9.24
2023-04-16T04:00:23.614Z,9.20
2023-04-16T04:01:23.584Z,9.19
2023-04-16T04:02:23.751Z,9.20
2023-04-16T04:03:23.785Z,9.22
2023-04-16T04:04:23.678Z,9.16
2023-04-16T04:05:23.516Z,9.16
2023-04-16T04:06:23.525Z,9.17
2023-04-16T04:07:23.484Z,9.17
2023-04-16T04:08:23.565Z,9.16
2023-04-16T04:09:23.465Z,9.13
2023-04-16T04:10:23.480Z,9.10
2023-04-16T04:11:23.447Z,9.13
2023-04-16T04:12:23.436Z,9.10
2023-04-16T04:13:23.443Z,9.13
2023-04-16T04:14:23.428Z,9.15
2023-04-16T04:15:23.420Z,9.15
2023-04-16T04:16:23.639Z,9.16
2023-04-16T04:17:24.343Z,9.15
2023-04-16T04:18:23.433Z,9.13
2023-04-16T04:19:23.353Z,9.08
2023-04-16T04:20:24.055Z,9.08
2023-04-16T04:21:23.332Z,9.06
2023-04-16T04:22:23.476Z,9.10
2023-04-16T04:23:23.324Z,9.12
2023-04-16T04:24:23.298Z,9.08
2023-04-16T04:25:23.295Z,9.10
2023-04-16T04:26:23.278Z,9.10
2023-04-16T04:27:23.525Z,9.12
2023-04-16T04:28:23.331Z,9.12
2023-04-16T04:29:23.297Z,9.13
2023-04-16T04:30:23.238Z,9.10
2023-04-16T04:31:23.227Z,9.10
2023-04-16T04:32:24.304Z,9.13
2023-04-16T04:33:23.212Z,9.12
2023-04-16T04:34:23.439Z,9.13
2023-04-16T04:35:23.410Z,9.13
2023-04-16T04:36:23.171Z,9.15
2023-04-16T04:37:23.137Z,9.17
2023-04-16T04:38:23.130Z,9.13
2023-04-16T04:39:23.188Z,9.15
2023-04-16T04:40:23.103Z,9.10
2023-04-16T04:41:23.163Z,9.13
2023-04-16T04:42:23.109Z,9.10
2023-04-16T04:43:23.026Z,9.08
2023-04-16T04:44:23.045Z,9.08
2023-04-16T04:45:23.052Z,9.06
2023-04-16T04:46:23.045Z,9.03
2023-04-16T04:47:23.046Z,9.04
2023-04-16T04:48:22.988Z,9.04
2023-04-16T04:49:22.957Z,9.08
2023-04-16T04:50:22.978Z,9.08
2023-04-16T04:51:24.057Z,9.08
2023-04-16T04:52:23.132Z,9.06
2023-04-16T04:53:22.937Z,9.03
2023-04-16T04:54:22.929Z,9.01
2023-04-16T04:55:23.164Z,9.03
2023-04-16T04:56:22.906Z,9.03
2023-04-16T04:57:22.848Z,9.04
2023-04-16T04:58:22.882Z,9.01
2023-04-16T04:59:22.835Z,9.00
2023-04-16T05:00:22.834Z,9.00
2023-04-16T05:01:30.145Z,9.00
2023-04-16T05:02:22.895Z,9.00
2023-04-16T05:03:22.911Z,8.98
2023-04-16T05:04:22.815Z,9.01
2023-04-16T05:05:22.792Z,9.01
2023-04-16T05:06:23.006Z,9.01
2023-04-16T05:07:22.739Z,9.00
2023-04-16T05:08:22.791Z,9.01
2023-04-16T05:09:22.947Z,9.00
2023-04-16T05:10:22.812Z,9.01
2023-04-16T05:11:22.656Z,9.01
2023-04-16T05:12:22.666Z,9.01
2023-04-16T05:13:22.633Z,8.98
2023-04-16T05:14:22.657Z,8.98
2023-04-16T05:15:22.605Z,8.97
2023-04-16T05:16:22.734Z,8.96
2023-04-16T05:17:22.889Z,8.97
2023-04-16T05:18:22.590Z,8.98
2023-04-16T05:19:22.801Z,9.01
2023-04-16T05:20:22.581Z,8.98
2023-04-16T05:21:22.809Z,9.00
2023-04-16T05:22:22.657Z,9.00
2023-04-16T05:23:22.522Z,8.97
2023-04-16T05:24:22.507Z,8.94
2023-04-16T05:25:22.877Z,8.97
2023-04-16T05:26:22.466Z,8.96
2023-04-16T05:27:22.726Z,8.97
2023-04-16T05:28:22.522Z,9.00
2023-04-16T05:29:22.757Z,9.00
2023-04-16T05:30:23.509Z,8.96
2023-04-16T05:31:22.565Z,8.98
2023-04-16T05:32:22.553Z,9.00
2023-04-16T05:33:22.395Z,9.00
2023-04-16T05:34:22.361Z,9.00
2023-04-16T05:35:22.366Z,9.06
2023-04-16T05:36:22.358Z,9.12
2023-04-16T05:37:22.723Z,9.10
2023-04-16T05:38:22.329Z,9.06
2023-04-16T05:39:22.311Z,9.00
2023-04-16T05:40:22.976Z,9.01
2023-04-16T05:41:22.307Z,9.01
2023-04-16T05:42:22.247Z,8.98
2023-04-16T05:43:22.269Z,9.00
2023-04-16T05:44:22.356Z,9.01
2023-04-16T05:45:22.232Z,9.00
2023-04-16T05:46:22.277Z,9.01
2023-04-16T05:47:22.352Z,9.01
2023-04-16T05:48:22.182Z,9.00
2023-04-16T05:49:22.187Z,9.03
2023-04-16T05:50:22.255Z,9.01
2023-04-16T05:51:22.149Z,9.03
2023-04-16T05:52:22.217Z,9.06
2023-04-16T05:53:22.100Z,9.10
2023-04-16T05:54:22.081Z,9.10
2023-04-16T05:55:22.169Z,9.06
2023-04-16T05:56:22.058Z,9.06
2023-04-16T05:57:22.116Z,9.12
2023-04-16T05:58:22.056Z,9.15
2023-04-16T05:59:22.048Z,9.15
2023-04-16T06:00:22.027Z,9.13
2023-04-16T06:01:22.769Z,9.19
2023-04-16T06:02:22.159Z,9.22
2023-04-16T06:03:22.066Z,9.23
2023-04-16T06:04:22.129Z,9.22
2023-04-16T06:05:21.976Z,9.19
2023-04-16T06:06:21.932Z,9.17
2023-04-16T06:07:21.934Z,9.15
2023-04-16T06:08:21.894Z,9.13
2023-04-16T06:09:21.924Z,9.13
2023-04-16T06:10:21.911Z,9.10
2023-04-16T06:11:21.849Z,9.13
2023-04-16T06:12:21.913Z,9.12
2023-04-16T06:13:22.007Z,9.10
2023-04-16T06:14:21.832Z,9.08
2023-04-16T06:15:21.808Z,9.10
2023-04-16T06:16:21.849Z,9.12
2023-04-16T06:17:21.780Z,9.15
2023-04-16T06:18:21.774Z,9.16
2023-04-16T06:19:21.852Z,9.13
2023-04-16T06:20:21.838Z,9.15
2023-04-16T06:21:21.724Z,9.15
2023-04-16T06:22:22.472Z,9.13
2023-04-16T06:23:21.821Z,9.13
2023-04-16T06:24:21.721Z,9.15
2023-04-16T06:25:21.769Z,9.15
2023-04-16T06:26:21.714Z,9.16
2023-04-16T06:27:21.688Z,9.19
2023-04-16T06:28:21.742Z,9.22
2023-04-16T06:29:27.933Z,9.24
2023-04-16T06:30:22.626Z,9.22
2023-04-16T06:31:21.751Z,9.19
2023-04-16T06:32:21.701Z,9.20
2023-04-16T06:33:21.627Z,9.22
2023-04-16T06:34:21.572Z,9.23
2023-04-16T06:35:21.523Z,9.23
2023-04-16T06:36:21.520Z,9.24
2023-04-16T06:37:21.497Z,9.24
2023-04-16T06:38:21.523Z,9.35
2023-04-16T06:39:21.485Z,9.40
2023-04-16T06:40:21.497Z,9.31
2023-04-16T06:41:21.446Z,9.27
2023-04-16T06:42:21.449Z,9.30
2023-04-16T06:43:21.424Z,9.27
2023-04-16T06:44:21.571Z,9.31
2023-04-16T06:45:21.420Z,9.32
2023-04-16T06:46:21.451Z,9.38
2023-04-16T06:47:21.427Z,9.38
2023-04-16T06:48:21.394Z,9.37
2023-04-16T06:49:21.381Z,9.34
2023-04-16T06:50:21.364Z,9.32
2023-04-16T06:51:21.345Z,9.31
2023-04-16T06:52:21.374Z,9.30
2023-04-16T06:53:21.308Z,9.27
2023-04-16T06:54:21.384Z,9.32
2023-04-16T06:55:21.303Z,9.32
2023-04-16T06:56:21.321Z,9.37
2023-04-16T06:57:21.230Z,9.40
2023-04-16T06:58:21.267Z,9.40
2023-04-16T06:59:21.278Z,9.40
2023-04-16T07:00:21.223Z,9.40
2023-04-16T07:01:21.293Z,9.37
2023-04-16T07:02:21.306Z,9.32
2023-04-16T07:03:21.384Z,9.32
2023-04-16T07:04:21.306Z,9.37
2023-04-16T07:05:21.157Z,9.40
2023-04-16T07:06:21.177Z,9.38
2023-04-16T07:07:21.116Z,9.42
2023-04-16T07:08:21.134Z,9.44
2023-04-16T07:09:21.100Z,9.48
2023-04-16T07:10:21.105Z,9.52
2023-04-16T07:11:21.112Z,9.55
2023-04-16T07:12:22.684Z,9.58
2023-04-16T07:13:21.051Z,9.53
2023-04-16T07:14:21.049Z,9.56
2023-04-16T07:15:21.022Z,9.49
2023-04-16T07:16:21.176Z,9.48
2023-04-16T07:17:21.023Z,9.53
2023-04-16T07:18:21.006Z,9.68
2023-04-16T07:19:20.998Z,9.75
2023-04-16T07:20:20.949Z,9.70
2023-04-16T07:21:20.944Z,9.70
2023-04-16T07:22:20.921Z,9.65
2023-04-16T07:23:20.925Z,9.58
2023-04-16T07:24:20.895Z,9.55
2023-04-16T07:25:20.910Z,9.50
2023-04-16T07:26:20.917Z,9.50
2023-04-16T07:27:20.864Z,9.48
2023-04-16T07:28:20.832Z,9.50
2023-04-16T07:29:20.875Z,9.50
2023-04-16T07:30:20.843Z,9.50
2023-04-16T07:31:20.848Z,9.49
2023-04-16T07:32:20.955Z,9.48
2023-04-16T07:33:20.807Z,9.42
2023-04-16T07:34:20.768Z,9.40
2023-04-16T07:35:20.783Z,9.44
2023-04-16T07:36:20.753Z,9.45
2023-04-16T07:37:20.777Z,9.49
2023-04-16T07:38:20.760Z,9.48
2023-04-16T07:39:20.734Z,9.45
2023-04-16T07:40:20.714Z,9.42
2023-04-16T07:41:20.720Z,9.48
2023-04-16T07:42:20.676Z,9.42
2023-04-16T07:43:20.686Z,9.44
2023-04-16T07:44:20.637Z,9.42
2023-04-16T07:45:20.732Z,9.42
2023-04-16T07:46:20.708Z,9.44
2023-04-16T07:47:20.666Z,9.50
2023-04-16T07:48:20.618Z,9.56
2023-04-16T07:49:20.597Z,9.55
2023-04-16T07:50:20.597Z,9.55
2023-04-16T07:51:20.566Z,9.52
2023-04-16T07:52:20.605Z,9.53
2023-04-16T07:53:20.563Z,9.53
2023-04-16T07:54:20.534Z,9.52
2023-04-16T07:55:20.506Z,9.52
2023-04-16T07:56:20.505Z,9.55
2023-04-16T07:57:20.500Z,9.52
2023-04-16T07:58:20.457Z,9.50
2023-04-16T07:59:23.598Z,9.55
2023-04-16T08:00:20.432Z,9.53
2023-04-16T08:01:20.439Z,9.50
2023-04-16T08:02:20.575Z,9.52
2023-04-16T08:03:20.582Z,9.45
2023-04-16T08:04:20.651Z,9.44
2023-04-16T08:05:20.445Z,9.48
2023-04-16T08:06:20.400Z,9.45
2023-04-16T08:07:20.404Z,9.48
2023-04-16T08:08:20.328Z,9.50
2023-04-16T08:09:20.337Z,9.50
2023-04-16T08:10:20.308Z,9.48
2023-04-16T08:11:20.299Z,9.44
2023-04-16T08:12:20.269Z,9.48
2023-04-16T08:13:20.270Z,9.52
2023-04-16T08:14:20.264Z,9.53
2023-04-16T08:15:20.248Z,9.53
2023-04-16T08:16:20.512Z,9.56
2023-04-16T08:17:20.277Z,9.62
2023-04-16T08:18:20.256Z,9.65
2023-04-16T08:19:20.224Z,9.68
2023-04-16T08:20:20.191Z,9.67
2023-04-16T08:21:20.220Z,9.62
2023-04-16T08:22:20.188Z,9.65
2023-04-16T08:23:20.155Z,9.65
2023-04-16T08:24:20.219Z,9.68
2023-04-16T08:25:20.133Z,9.71
2023-04-16T08:26:20.095Z,9.67
2023-04-16T08:27:20.490Z,9.59
2023-04-16T08:28:20.096Z,9.60
2023-04-16T08:29:20.091Z,9.63
2023-04-16T08:30:20.065Z,9.65
2023-04-16T08:31:20.148Z,9.63
2023-04-16T08:32:20.203Z,9.63
2023-04-16T08:33:20.019Z,9.60
2023-04-16T08:34:19.993Z,9.62
2023-04-16T08:35:20.044Z,9.63
2023-04-16T08:36:20.014Z,9.62
2023-04-16T08:37:19.988Z,9.63
2023-04-16T08:38:19.957Z,9.65
2023-04-16T08:39:19.970Z,9.62
2023-04-16T08:40:19.987Z,9.65
2023-04-16T08:41:19.945Z,9.62
2023-04-16T08:42:19.944Z,9.59
2023-04-16T08:43:19.922Z,9.62
2023-04-16T08:44:19.952Z,9.62
2023-04-16T08:45:19.881Z,9.63
2023-04-16T08:46:19.926Z,9.68
2023-04-16T08:47:19.869Z,9.71
2023-04-16T08:48:19.860Z,9.63
2023-04-16T08:49:19.872Z,9.62
2023-04-16T08:50:19.831Z,9.62
2023-04-16T08:51:19.873Z,9.63
2023-04-16T08:52:19.776Z,9.63
2023-04-16T08:53:19.879Z,9.60
2023-04-16T08:54:19.758Z,9.58
2023-04-16T08:55:19.759Z,9.59
2023-04-16T08:56:19.742Z,9.65
2023-04-16T08:57:19.715Z,9.62
2023-04-16T08:58:19.705Z,9.60
2023-04-16T08:59:20.667Z,9.58
2023-04-16T09:00:19.670Z,9.58
2023-04-16T09:01:19.753Z,9.58
2023-04-16T09:02:19.732Z,9.60
2023-04-16T09:03:19.953Z,9.59
2023-04-16T09:04:19.728Z,9.58
2023-04-16T09:05:19.627Z,9.59
2023-04-16T09:06:19.640Z,9.59
2023-04-16T09:07:19.605Z,9.62
2023-04-16T09:08:19.580Z,9.60
2023-04-16T09:09:19.578Z,9.62
2023-04-16T09:10:19.674Z,9.62
2023-04-16T09:11:19.574Z,9.63
2023-04-16T09:12:19.540Z,9.62
2023-04-16T09:13:19.540Z,9.63
2023-04-16T09:14:19.520Z,9.63
2023-04-16T09:15:19.507Z,9.65
2023-04-16T09:16:19.541Z,9.68
2023-04-16T09:17:19.490Z,9.63
2023-04-16T09:18:19.493Z,9.62
2023-04-16T09:19:20.018Z,9.63
2023-04-16T09:20:19.432Z,9.65
2023-04-16T09:21:20.281Z,9.70
2023-04-16T09:22:19.384Z,9.71
2023-04-16T09:23:19.440Z,9.75
2023-04-16T09:24:19.448Z,9.77
2023-04-16T09:25:19.351Z,9.81
2023-04-16T09:26:19.338Z,9.78
2023-04-16T09:27:19.376Z,9.74
2023-04-16T09:28:19.323Z,9.70
2023-04-16T09:29:19.306Z,9.73
2023-04-16T09:30:19.339Z,9.81
2023-04-16T09:31:19.493Z,9.86
2023-04-16T09:32:19.279Z,9.92
2023-04-16T09:33:19.284Z,9.92
2023-04-16T09:34:19.236Z,9.93
2023-04-16T09:35:19.234Z,9.89
2023-04-16T09:36:19.252Z,9.85
2023-04-16T09:37:19.194Z,9.91
2023-04-16T09:38:19.181Z,9.98
2023-04-16T09:39:19.173Z,9.99
2023-04-16T09:40:19.238Z,9.89
2023-04-16T09:41:19.156Z,9.85
2023-04-16T09:42:19.461Z,9.88
2023-04-16T09:43:19.242Z,9.92
2023-04-16T09:44:19.134Z,9.85
2023-04-16T09:45:19.188Z,9.85
2023-04-16T09:46:19.153Z,9.89
2023-04-16T09:47:19.204Z,9.92
2023-04-16T09:48:19.075Z,9.93
2023-04-16T09:49:19.125Z,9.93
2023-04-16T09:50:19.400Z,9.96
2023-04-16T09:51:19.080Z,9.95
2023-04-16T09:52:19.058Z,9.96
2023-04-16T09:53:19.062Z,9.98
2023-04-16T09:54:19.073Z,10.02
2023-04-16T09:55:19.087Z,10.04
2023-04-16T09:56:19.118Z,10.07
2023-04-16T09:57:19.141Z,10.06
2023-04-16T09:58:18.989Z,10.04
2023-04-16T09:59:18.971Z,9.99
2023-04-16T10:00:19.321Z,9.99
2023-04-16T10:01:18.980Z,10.02
2023-04-16T10:02:19.296Z,10.04
2023-04-16T10:03:19.455Z,10.06
2023-04-16T10:04:19.318Z,10.02
2023-04-16T10:05:20.201Z,10.04
2023-04-16T10:06:19.197Z,9.96
2023-04-16T10:07:19.104Z,9.98
2023-04-16T10:08:19.374Z,9.95
2023-04-16T10:09:18.884Z,9.93
2023-04-16T10:10:18.924Z,9.93
2023-04-16T10:11:18.820Z,9.98
2023-04-16T10:12:18.858Z,10.01
2023-04-16T10:13:18.835Z,10.04
2023-04-16T10:14:18.860Z,10.06
2023-04-16T10:15:18.741Z,10.06
2023-04-16T10:16:19.064Z,10.04
2023-04-16T10:17:19.068Z,10.06
2023-04-16T10:18:19.735Z,10.10
2023-04-16T10:19:19.012Z,10.13
2023-04-16T10:20:19.104Z,10.14
2023-04-16T10:21:18.708Z,10.09
2023-04-16T10:22:18.628Z,10.11
2023-04-16T10:23:18.661Z,10.13
2023-04-16T10:24:18.674Z,10.20
2023-04-16T10:25:18.750Z,10.26
2023-04-16T10:26:18.805Z,10.31
2023-04-16T10:27:18.913Z,10.28
2023-04-16T10:28:19.004Z,10.32
2023-04-16T10:29:19.083Z,10.43
2023-04-16T10:30:18.634Z,10.47
2023-04-16T10:31:18.561Z,10.47
2023-04-16T10:32:18.706Z,10.55
2023-04-16T10:33:19.418Z,10.60
2023-04-16T10:34:18.551Z,10.62
2023-04-16T10:35:19.376Z,10.69
2023-04-16T10:36:18.467Z,10.73
2023-04-16T10:37:19.153Z,10.75
2023-04-16T10:38:19.563Z,10.66
2023-04-16T10:39:18.835Z,10.57
2023-04-16T10:40:19.384Z,10.49
2023-04-16T10:41:18.420Z,10.47
2023-04-16T10:42:18.382Z,10.46
2023-04-16T10:43:19.618Z,10.44
2023-04-16T10:44:18.383Z,10.38
2023-04-16T10:45:18.371Z,10.31
2023-04-16T10:46:18.374Z,10.25
2023-04-16T10:47:18.392Z,10.25
2023-04-16T10:48:19.463Z,10.26
2023-04-16T10:49:18.322Z,10.35
2023-04-16T10:50:18.333Z,10.34
2023-04-16T10:51:18.400Z,10.35
2023-04-16T10:52:18.307Z,10.34
2023-04-16T10:53:18.323Z,10.34
2023-04-16T10:54:18.353Z,10.31
2023-04-16T10:55:18.335Z,10.31
2023-04-16T10:56:18.364Z,10.29
2023-04-16T10:57:18.373Z,10.35
2023-04-16T10:58:18.423Z,10.42
2023-04-16T10:59:18.392Z,10.46
2023-04-16T11:00:18.452Z,10.49
2023-04-16T11:01:18.203Z,10.54
2023-04-16T11:02:27.246Z,10.52
2023-04-16T11:03:18.208Z,10.51
2023-04-16T11:04:18.197Z,10.52
2023-04-16T11:05:18.889Z,10.46
2023-04-16T11:06:19.408Z,10.42
2023-04-16T11:07:18.102Z,10.39
2023-04-16T11:08:18.045Z,10.38
2023-04-16T11:09:18.063Z,10.39
2023-04-16T11:10:18.061Z,10.42
2023-04-16T11:11:18.035Z,10.43
2023-04-16T11:12:18.037Z,10.44
2023-04-16T11:13:18.047Z,10.47
2023-04-16T11:14:17.970Z,10.47
2023-04-16T11:15:18.151Z,10.47
2023-04-16T11:16:17.975Z,10.52
2023-04-16T11:17:17.927Z,10.55
2023-04-16T11:18:17.891Z,10.55
2023-04-16T11:19:18.261Z,10.57
2023-04-16T11:20:20.470Z,10.60
2023-04-16T11:21:17.870Z,10.65
2023-04-16T11:22:18.369Z,10.70
2023-04-16T11:23:17.839Z,10.80
2023-04-16T11:24:18.154Z,10.90
2023-04-16T11:25:17.815Z,10.95
2023-04-16T11:26:17.867Z,11.03
2023-04-16T11:27:17.858Z,11.09
2023-04-16T11:28:17.766Z,11.20
2023-04-16T11:29:18.126Z,11.23
2023-04-16T11:30:17.850Z,11.31
2023-04-16T11:31:17.832Z,11.36
2023-04-16T11:32:17.738Z,11.39
2023-04-16T11:33:17.795Z,11.51
2023-04-16T11:34:17.807Z,11.59
2023-04-16T11:35:17.697Z,11.62
2023-04-16T11:36:17.693Z,11.64
2023-04-16T11:37:17.645Z,11.64
2023-04-16T11:38:17.638Z,11.66
2023-04-16T11:39:17.615Z,11.69
2023-04-16T11:40:17.771Z,11.66
2023-04-16T11:41:17.611Z,11.67
2023-04-16T11:42:17.654Z,11.64
2023-04-16T11:43:17.563Z,11.66
2023-04-16T11:44:17.563Z,11.63
2023-04-16T11:45:17.733Z,11.51
2023-04-16T11:46:26.902Z,11.42
2023-04-16T11:47:18.621Z,11.41
2023-04-16T11:48:17.679Z,11.41
2023-04-16T11:49:17.515Z,11.38
2023-04-16T11:50:17.518Z,11.33
2023-04-16T11:51:17.488Z,11.30
2023-04-16T11:52:17.488Z,11.20
2023-04-16T11:53:18.203Z,11.16
2023-04-16T11:54:17.472Z,11.08
2023-04-16T11:55:17.456Z,11.03
2023-04-16T11:56:17.536Z,11.01
2023-04-16T11:57:17.523Z,10.99
2023-04-16T11:58:17.399Z,10.98
2023-04-16T11:59:17.981Z,10.93
2023-04-16T12:00:18.818Z,10.90
2023-04-16T12:01:17.683Z,10.88
2023-04-16T12:02:17.499Z,10.88
2023-04-16T12:03:17.623Z,10.88
2023-04-16T12:04:17.808Z,10.91
2023-04-16T12:05:17.497Z,10.91
2023-04-16T12:06:17.397Z,10.93
2023-04-16T12:07:17.371Z,10.91
2023-04-16T12:08:17.492Z,10.88
2023-04-16T12:09:17.243Z,10.90
2023-04-16T12:10:17.283Z,10.90
2023-04-16T12:11:17.262Z,10.90
2023-04-16T12:12:17.214Z,10.91
2023-04-16T12:13:17.251Z,10.88
2023-04-16T12:14:17.190Z,10.87
2023-04-16T12:15:17.160Z,10.86
2023-04-16T12:16:17.186Z,10.86
2023-04-16T12:17:17.129Z,10.87
2023-04-16T12:18:17.222Z,10.90
2023-04-16T12:19:17.146Z,10.90
2023-04-16T12:20:17.214Z,10.88
2023-04-16T12:21:17.135Z,10.88
2023-04-16T12:22:17.094Z,10.84
2023-04-16T12:23:17.069Z,10.87
2023-04-16T12:24:17.127Z,10.88
2023-04-16T12:25:17.042Z,10.86
2023-04-16T12:26:17.058Z,10.83
2023-04-16T12:27:17.011Z,10.83
2023-04-16T12:28:16.999Z,10.81
2023-04-16T12:29:17.050Z,10.78
2023-04-16T12:30:16.996Z,10.78
2023-04-16T12:31:17.047Z,10.80
2023-04-16T12:32:16.948Z,10.75
2023-04-16T12:33:16.985Z,10.69
2023-04-16T12:34:16.931Z,10.70
2023-04-16T12:35:16.921Z,10.72
2023-04-16T12:36:16.936Z,10.73
2023-04-16T12:37:16.908Z,10.73
2023-04-16T12:38:17.009Z,10.75
2023-04-16T12:39:16.847Z,10.75
2023-04-16T12:40:16.868Z,10.76
2023-04-16T12:41:16.870Z,10.78
2023-04-16T12:42:16.868Z,10.81
2023-04-16T12:43:16.825Z,10.80
2023-04-16T12:44:16.816Z,10.76
2023-04-16T12:45:16.813Z,10.76
2023-04-16T12:46:16.783Z,10.76
2023-04-16T12:47:16.819Z,10.73
2023-04-16T12:48:16.746Z,10.73
2023-04-16T12:49:16.744Z,10.75
2023-04-16T12:50:16.742Z,10.75
2023-04-16T12:51:16.719Z,10.76
2023-04-16T12:52:16.712Z,10.76
2023-04-16T12:53:16.690Z,10.78
2023-04-16T12:54:16.662Z,10.76
2023-04-16T12:55:16.644Z,10.78
2023-04-16T12:56:16.658Z,10.78
2023-04-16T12:57:16.658Z,10.73
2023-04-16T12:58:16.649Z,10.72
2023-04-16T12:59:16.601Z,10.70
2023-04-16T13:00:16.630Z,10.70
2023-04-16T13:01:16.600Z,10.69
2023-04-16T13:02:16.763Z,10.69
2023-04-16T13:03:16.867Z,10.66
2023-04-16T13:04:16.779Z,10.63
2023-04-16T13:05:16.566Z,10.62
2023-04-16T13:06:16.508Z,10.58
2023-04-16T13:07:16.514Z,10.57
2023-04-16T13:08:16.484Z,10.55
2023-04-16T13:09:16.484Z,10.49
2023-04-16T13:10:16.468Z,10.49
2023-04-16T13:11:16.472Z,10.47
2023-04-16T13:12:16.576Z,10.47